createdAt,value
2019-01-14T00:00:37.088Z,10.00
2019-01-14T00:01:37.029Z,12.50
2019-01-14T00:02:37.034Z,11.60
2019-01-14T00:03:37.087Z,11.70
2019-01-14T00:04:37.005Z,13.50
2019-01-14T00:05:36.984Z,12.80
2019-01-14T00:06:37.023Z,11.80
2019-01-14T00:07:36.988Z,12.00
2019-01-14T00:08:37.020Z,10.20
2019-01-14T00:09:38.355Z,12.70
2019-01-14T00:10:36.938Z,12.70
2019-01-14T00:11:36.929Z,11.50
2019-01-14T00:12:36.917Z,12.40
2019-01-14T00:13:36.907Z,12.80
2019-01-14T00:14:36.893Z,14.00
2019-01-14T00:15:36.891Z,10.60
2019-01-14T00:16:36.871Z,10.30
2019-01-14T00:17:36.875Z,13.40
2019-01-14T00:18:36.870Z,13.20
2019-01-14T00:19:36.863Z,15.10
2019-01-14T00:20:36.839Z,13.70
2019-01-14T00:21:36.813Z,12.70
2019-01-14T00:22:36.820Z,10.80
2019-01-14T00:23:36.809Z,14.00
2019-01-14T00:24:36.785Z,12.50
2019-01-14T00:25:36.778Z,12.90
2019-01-14T00:26:36.763Z,14.20
2019-01-14T00:27:36.755Z,16.80
2019-01-14T00:28:36.744Z,11.90
2019-01-14T00:29:36.744Z,14.80
2019-01-14T00:30:36.731Z,15.80
2019-01-14T00:31:36.709Z,18.60
2019-01-14T00:32:36.697Z,13.50
2019-01-14T00:33:36.687Z,12.80
2019-01-14T00:34:36.688Z,13.40
2019-01-14T00:35:36.688Z,14.60
2019-01-14T00:36:36.661Z,13.30
2019-01-14T00:37:36.651Z,14.00
2019-01-14T00:38:36.640Z,14.30
2019-01-14T00:39:36.622Z,14.50
2019-01-14T00:40:36.618Z,13.90
2019-01-14T00:41:36.605Z,15.20
2019-01-14T00:42:36.588Z,15.10
2019-01-14T00:43:36.574Z,17.00
2019-01-14T00:44:36.565Z,12.80
2019-01-14T00:45:36.561Z,15.70
2019-01-14T00:46:36.559Z,18.00
2019-01-14T00:47:36.786Z,14.00
2019-01-14T00:48:36.528Z,16.00
2019-01-14T00:49:36.516Z,13.90
2019-01-14T00:50:36.503Z,15.00
2019-01-14T00:51:36.498Z,16.10
2019-01-14T00:52:36.494Z,14.30
2019-01-14T00:53:36.481Z,15.70
2019-01-14T00:54:36.463Z,17.80
2019-01-14T00:55:36.457Z,16.00
2019-01-14T00:56:36.447Z,13.30
2019-01-14T00:57:36.433Z,15.20
2019-01-14T00:58:36.431Z,13.40
2019-01-14T00:59:36.405Z,12.20
2019-01-14T01:00:36.402Z,16.00
2019-01-14T01:01:36.381Z,16.20
2019-01-14T01:02:36.371Z,16.20
2019-01-14T01:03:36.361Z,16.20
2019-01-14T01:04:36.349Z,14.70
2019-01-14T01:05:36.339Z,14.00
2019-01-14T01:06:36.327Z,15.50
2019-01-14T01:07:36.317Z,14.80
2019-01-14T01:08:36.305Z,16.20
2019-01-14T01:09:36.299Z,14.90
2019-01-14T01:10:36.285Z,16.70
2019-01-14T01:11:36.277Z,16.50
2019-01-14T01:12:36.260Z,17.90
2019-01-14T01:13:36.255Z,16.80
2019-01-14T01:14:36.242Z,15.70
2019-01-14T01:15:36.234Z,16.00
2019-01-14T01:16:36.221Z,16.70
2019-01-14T01:17:36.206Z,15.70
2019-01-14T01:18:36.196Z,16.40
2019-01-14T01:19:36.193Z,17.70
2019-01-14T01:20:36.181Z,17.00
2019-01-14T01:21:36.175Z,16.90
2019-01-14T01:22:36.149Z,21.30
2019-01-14T01:23:36.151Z,20.10
2019-01-14T01:24:36.135Z,21.50
2019-01-14T01:25:36.121Z,20.60
2019-01-14T01:26:36.117Z,15.40
2019-01-14T01:27:36.105Z,17.80
2019-01-14T01:28:36.096Z,16.90
2019-01-14T01:29:36.080Z,16.70
2019-01-14T01:30:36.071Z,14.80
2019-01-14T01:31:36.060Z,17.70
2019-01-14T01:32:36.052Z,18.50
2019-01-14T01:33:36.049Z,16.30
2019-01-14T01:34:36.031Z,16.40
2019-01-14T01:35:36.015Z,16.50
2019-01-14T01:36:36.013Z,18.70
2019-01-14T01:37:36.004Z,16.20
2019-01-14T01:38:35.989Z,17.30
2019-01-14T01:39:35.976Z,17.50
2019-01-14T01:40:35.961Z,16.40
2019-01-14T01:41:35.949Z,22.40
2019-01-14T01:42:35.939Z,17.30
2019-01-14T01:43:35.931Z,20.20
2019-01-14T01:44:35.918Z,16.50
2019-01-14T01:45:35.911Z,14.90
2019-01-14T01:46:35.895Z,18.10
2019-01-14T01:47:35.895Z,17.50
2019-01-14T01:48:35.873Z,18.20
2019-01-14T01:49:35.865Z,17.40
2019-01-14T01:50:35.849Z,19.20
2019-01-14T01:51:35.843Z,18.60
2019-01-14T01:52:35.830Z,20.50
2019-01-14T01:53:35.817Z,17.80
2019-01-14T01:54:35.821Z,20.50
2019-01-14T01:55:35.801Z,15.20
2019-01-14T01:56:35.786Z,17.20
2019-01-14T01:57:35.775Z,20.40
2019-01-14T01:58:35.765Z,16.10
2019-01-14T01:59:35.757Z,20.30
2019-01-14T02:00:35.754Z,17.70
2019-01-14T02:01:35.737Z,18.10
2019-01-14T02:02:35.727Z,18.60
2019-01-14T02:03:35.720Z,14.90
2019-01-14T02:04:35.699Z,17.10
2019-01-14T02:05:35.693Z,18.50
2019-01-14T02:06:39.269Z,19.60
2019-01-14T02:07:35.671Z,19.10
2019-01-14T02:08:35.665Z,18.60
2019-01-14T02:09:35.649Z,21.10
2019-01-14T02:10:35.640Z,21.00
2019-01-14T02:11:35.631Z,18.50
2019-01-14T02:12:35.617Z,19.70
2019-01-14T02:13:35.606Z,20.20
2019-01-14T02:14:35.601Z,19.10
2019-01-14T02:15:35.601Z,21.10
2019-01-14T02:16:35.581Z,17.40
2019-01-14T02:17:35.579Z,18.90
2019-01-14T02:18:35.577Z,19.50
2019-01-14T02:19:35.539Z,22.50
2019-01-14T02:20:35.531Z,18.80
2019-01-14T02:21:35.521Z,21.90
2019-01-14T02:22:35.507Z,21.30
2019-01-14T02:23:35.511Z,18.60
2019-01-14T02:24:35.483Z,19.90
2019-01-14T02:25:35.480Z,20.10
2019-01-14T02:26:35.462Z,17.10
2019-01-14T02:27:35.452Z,16.90
2019-01-14T02:28:35.451Z,19.80
2019-01-14T02:29:35.445Z,18.90
2019-01-14T02:30:35.423Z,22.00
2019-01-14T02:31:35.414Z,20.00
2019-01-14T02:32:35.409Z,23.10
2019-01-14T02:33:35.388Z,16.30
2019-01-14T02:34:35.391Z,15.30
2019-01-14T02:35:35.393Z,17.40
2019-01-14T02:36:35.359Z,18.40
2019-01-14T02:37:35.356Z,16.30
2019-01-14T02:38:35.346Z,21.00
2019-01-14T02:39:35.329Z,21.00
2019-01-14T02:40:35.323Z,19.40
2019-01-14T02:41:35.313Z,22.70
2019-01-14T02:42:35.298Z,19.80
2019-01-14T02:43:35.289Z,22.60
2019-01-14T02:44:35.280Z,19.60
2019-01-14T02:45:35.268Z,18.20
2019-01-14T02:46:35.261Z,19.30
2019-01-14T02:47:35.253Z,20.20
2019-01-14T02:48:35.240Z,19.20
2019-01-14T02:49:35.239Z,21.00
2019-01-14T02:50:35.219Z,21.90
2019-01-14T02:51:35.209Z,18.30
2019-01-14T02:52:39.795Z,18.00
2019-01-14T02:53:35.183Z,19.90
2019-01-14T02:54:35.170Z,21.10
2019-01-14T02:55:35.159Z,20.10
2019-01-14T02:56:35.149Z,18.50
2019-01-14T02:57:35.145Z,18.10
2019-01-14T02:58:35.132Z,18.00
2019-01-14T02:59:35.118Z,22.70
2019-01-14T03:00:35.108Z,20.30
2019-01-14T03:01:35.099Z,21.70
2019-01-14T03:02:35.084Z,18.80
2019-01-14T03:03:35.075Z,20.50
2019-01-14T03:04:35.067Z,19.20
2019-01-14T03:05:35.064Z,19.20
2019-01-14T03:06:35.043Z,21.00
2019-01-14T03:07:35.050Z,23.20
2019-01-14T03:08:35.027Z,23.10
2019-01-14T03:09:35.017Z,23.00
2019-01-14T03:10:35.006Z,15.70
2019-01-14T03:11:35.010Z,24.10
2019-01-14T03:12:34.983Z,24.00
2019-01-14T03:13:34.963Z,20.00
2019-01-14T03:14:34.957Z,15.50
2019-01-14T03:15:34.941Z,20.50
2019-01-14T03:16:34.930Z,22.00
2019-01-14T03:17:34.923Z,22.90
2019-01-14T03:18:34.918Z,21.50
2019-01-14T03:19:34.899Z,17.50
2019-01-14T03:20:34.890Z,23.00
2019-01-14T03:21:34.875Z,20.00
2019-01-14T03:22:34.870Z,19.30
2019-01-14T03:23:34.857Z,20.20
2019-01-14T03:24:34.851Z,18.00
2019-01-14T03:25:34.837Z,21.30
2019-01-14T03:26:34.820Z,20.80
2019-01-14T03:27:34.815Z,18.50
2019-01-14T03:28:34.806Z,16.40
2019-01-14T03:29:34.791Z,23.40
2019-01-14T03:30:34.778Z,23.10
2019-01-14T03:31:34.776Z,20.10
2019-01-14T03:32:34.762Z,20.50
2019-01-14T03:33:34.749Z,17.50
2019-01-14T03:34:34.737Z,19.90
2019-01-14T03:35:34.732Z,18.40
2019-01-14T03:36:34.719Z,20.90
2019-01-14T03:37:34.713Z,22.70
2019-01-14T03:38:34.699Z,20.50
2019-01-14T03:39:34.689Z,19.10
2019-01-14T03:40:34.673Z,15.50
2019-01-14T03:41:34.674Z,19.60
2019-01-14T03:42:34.705Z,18.70
2019-01-14T03:43:34.639Z,20.40
2019-01-14T03:44:34.633Z,20.10
2019-01-14T03:45:34.620Z,21.50
2019-01-14T03:46:34.606Z,21.90
2019-01-14T03:47:34.611Z,24.10
2019-01-14T03:48:34.615Z,21.50
2019-01-14T03:49:34.573Z,20.30
2019-01-14T03:50:34.563Z,21.50
2019-01-14T03:51:34.557Z,18.70
2019-01-14T03:52:34.545Z,20.30
2019-01-14T03:53:34.542Z,20.80
2019-01-14T03:54:34.531Z,21.70
2019-01-14T03:55:34.511Z,22.40
2019-01-14T03:56:34.500Z,18.70
2019-01-14T03:57:34.487Z,17.90
2019-01-14T03:58:34.484Z,17.00
2019-01-14T03:59:34.476Z,19.20
2019-01-14T04:00:34.456Z,20.50
2019-01-14T04:01:34.449Z,18.60
2019-01-14T04:02:34.431Z,17.70
2019-01-14T04:03:34.428Z,18.20
2019-01-14T04:04:34.408Z,19.90
2019-01-14T04:05:34.406Z,20.90
2019-01-14T04:06:34.392Z,21.90
2019-01-14T04:07:34.386Z,24.30
2019-01-14T04:08:34.371Z,19.20
2019-01-14T04:09:34.362Z,19.00
2019-01-14T04:10:34.353Z,18.70
2019-01-14T04:11:34.343Z,14.80
2019-01-14T04:12:34.331Z,19.50
2019-01-14T04:13:34.317Z,21.40
2019-01-14T04:14:34.307Z,17.40
2019-01-14T04:15:34.315Z,18.20
2019-01-14T04:16:34.299Z,18.60
2019-01-14T04:17:34.290Z,19.50
2019-01-14T04:18:34.262Z,18.50
2019-01-14T04:19:34.251Z,16.10
2019-01-14T04:20:34.245Z,18.30
2019-01-14T04:21:34.229Z,16.60
2019-01-14T04:22:34.222Z,14.20
2019-01-14T04:23:34.213Z,14.60
2019-01-14T04:24:34.203Z,15.70
2019-01-14T04:25:34.187Z,15.40
2019-01-14T04:26:34.191Z,16.70
2019-01-14T04:27:34.176Z,18.00
2019-01-14T04:28:34.162Z,17.50
2019-01-14T04:29:34.149Z,17.20
2019-01-14T04:30:34.145Z,16.90
2019-01-14T04:31:34.134Z,17.30
2019-01-14T04:32:34.118Z,13.50
2019-01-14T04:33:34.114Z,13.40
2019-01-14T04:34:34.105Z,13.70
2019-01-14T04:35:34.140Z,13.00
2019-01-14T04:36:34.071Z,14.60
2019-01-14T04:37:34.066Z,11.60
2019-01-14T04:38:34.055Z,16.00
2019-01-14T04:39:34.049Z,12.90
2019-01-14T04:40:34.045Z,16.00
2019-01-14T04:41:34.029Z,14.60
2019-01-14T04:42:34.013Z,16.30
2019-01-14T04:43:34.003Z,13.30
2019-01-14T04:44:33.987Z,13.90
2019-01-14T04:45:33.981Z,13.70
2019-01-14T04:46:33.974Z,13.40
2019-01-14T04:47:33.973Z,14.40
2019-01-14T04:48:33.942Z,14.90
2019-01-14T04:49:33.947Z,15.90
2019-01-14T04:50:33.935Z,11.80
2019-01-14T04:51:33.919Z,12.60
2019-01-14T04:52:33.909Z,13.20
2019-01-14T04:53:33.903Z,13.00
2019-01-14T04:54:33.886Z,13.60
2019-01-14T04:55:33.871Z,11.40
2019-01-14T04:56:33.866Z,12.90
2019-01-14T04:57:33.857Z,10.20
2019-01-14T04:58:33.845Z,13.30
2019-01-14T04:59:33.839Z,13.40
2019-01-14T05:00:33.815Z,12.00
2019-01-14T05:01:33.811Z,13.50
2019-01-14T05:02:33.814Z,12.60
2019-01-14T05:03:33.789Z,12.10
2019-01-14T05:04:33.777Z,13.30
2019-01-14T05:05:33.769Z,11.90
2019-01-14T05:06:33.761Z,15.70
2019-01-14T05:07:33.745Z,11.90
2019-01-14T05:08:33.743Z,12.80
2019-01-14T05:09:33.731Z,10.60
2019-01-14T05:10:33.741Z,12.60
2019-01-14T05:11:33.700Z,12.40
2019-01-14T05:12:33.692Z,12.30
2019-01-14T05:13:33.690Z,12.60
2019-01-14T05:14:33.671Z,9.20
2019-01-14T05:15:33.657Z,10.50
2019-01-14T05:16:33.649Z,11.90
2019-01-14T05:17:33.648Z,13.90
2019-01-14T05:18:33.626Z,11.10
2019-01-14T05:19:33.630Z,15.80
2019-01-14T05:20:33.613Z,14.00
2019-01-14T05:21:33.597Z,11.70
2019-01-14T05:22:33.590Z,15.30
2019-01-14T05:23:33.574Z,15.80
2019-01-14T05:24:33.563Z,13.10
2019-01-14T05:25:33.557Z,14.70
2019-01-14T05:26:33.540Z,12.40
2019-01-14T05:27:33.530Z,14.20
2019-01-14T05:28:33.527Z,10.70
2019-01-14T05:29:33.520Z,11.60
2019-01-14T05:30:33.506Z,13.40
2019-01-14T05:31:33.487Z,12.40
2019-01-14T05:32:33.485Z,14.70
2019-01-14T05:33:33.472Z,13.00
2019-01-14T05:34:33.467Z,11.90
2019-01-14T05:35:33.457Z,11.30
2019-01-14T05:36:33.433Z,13.50
2019-01-14T05:37:37.412Z,12.30
2019-01-14T05:38:33.411Z,11.80
2019-01-14T05:39:33.411Z,13.50
2019-01-14T05:40:33.401Z,15.20
2019-01-14T05:41:33.381Z,12.60
2019-01-14T05:42:33.378Z,9.80
2019-01-14T05:43:33.361Z,11.20
2019-01-14T05:44:33.355Z,13.00
2019-01-14T05:45:33.335Z,13.30
2019-01-14T05:46:33.340Z,13.00
2019-01-14T05:47:33.323Z,18.50
2019-01-14T05:48:33.316Z,12.70
2019-01-14T05:49:33.295Z,12.30
2019-01-14T05:50:33.293Z,11.00
2019-01-14T05:51:33.280Z,12.60
2019-01-14T05:52:33.267Z,13.00
2019-01-14T05:53:33.269Z,13.70
2019-01-14T05:54:33.243Z,11.00
2019-01-14T05:55:33.233Z,9.60
2019-01-14T05:56:33.222Z,11.90
2019-01-14T05:57:33.219Z,9.80
2019-01-14T05:58:33.210Z,11.40
2019-01-14T05:59:33.193Z,13.40
2019-01-14T06:00:33.181Z,11.70
2019-01-14T06:01:33.173Z,14.70
2019-01-14T06:02:33.159Z,10.20
2019-01-14T06:03:33.160Z,11.30
2019-01-14T06:04:33.138Z,14.00
2019-01-14T06:05:33.129Z,13.90
2019-01-14T06:06:33.109Z,12.00
2019-01-14T06:07:33.109Z,10.50
2019-01-14T06:08:33.090Z,10.70
2019-01-14T06:09:33.095Z,11.60
2019-01-14T06:10:33.074Z,11.60
2019-01-14T06:11:33.062Z,12.20
2019-01-14T06:12:33.052Z,12.10
2019-01-14T06:13:33.055Z,11.20
2019-01-14T06:14:33.025Z,10.40
2019-01-14T06:15:33.021Z,12.70
2019-01-14T06:16:33.035Z,11.60
2019-01-14T06:17:32.997Z,11.30
2019-01-14T06:18:32.983Z,11.90
2019-01-14T06:19:32.973Z,15.00
2019-01-14T06:20:32.970Z,12.30
2019-01-14T06:21:32.975Z,11.20
2019-01-14T06:22:32.945Z,13.20
2019-01-14T06:23:32.934Z,11.10
2019-01-14T06:24:32.927Z,13.60
2019-01-14T06:25:32.922Z,11.80
2019-01-14T06:26:32.896Z,11.20
2019-01-14T06:27:32.902Z,13.30
2019-01-14T06:28:32.889Z,12.10
2019-01-14T06:29:32.864Z,12.00
2019-01-14T06:30:32.859Z,12.60
2019-01-14T06:31:32.840Z,11.50
2019-01-14T06:32:32.841Z,12.70
2019-01-14T06:33:32.830Z,12.80
2019-01-14T06:34:32.856Z,12.50
2019-01-14T06:35:32.801Z,13.00
2019-01-14T06:36:32.795Z,10.40
2019-01-14T06:37:32.785Z,12.80
2019-01-14T06:38:32.777Z,12.30
2019-01-14T06:39:32.775Z,12.80
2019-01-14T06:40:32.757Z,13.00
2019-01-14T06:41:32.736Z,11.80
2019-01-14T06:42:32.727Z,13.50
2019-01-14T06:43:32.713Z,10.20
2019-01-14T06:44:32.723Z,13.20
2019-01-14T06:45:32.698Z,12.40
2019-01-14T06:46:32.690Z,10.30
2019-01-14T06:47:32.675Z,10.30
2019-01-14T06:48:32.666Z,11.60
2019-01-14T06:49:32.663Z,11.80
2019-01-14T06:50:32.655Z,12.50
2019-01-14T06:51:32.632Z,11.90
2019-01-14T06:52:32.626Z,9.80
2019-01-14T06:53:32.617Z,10.50
2019-01-14T06:54:32.600Z,11.30
2019-01-14T06:55:32.593Z,13.20
2019-01-14T06:56:32.581Z,12.50
2019-01-14T06:57:32.574Z,8.80
2019-01-14T06:58:32.561Z,9.90
2019-01-14T06:59:32.551Z,9.80
2019-01-14T07:00:32.547Z,14.40
2019-01-14T07:01:32.527Z,9.90
2019-01-14T07:02:32.537Z,10.30
2019-01-14T07:03:32.508Z,6.70
2019-01-14T07:04:32.495Z,9.00
2019-01-14T07:05:32.511Z,11.50
2019-01-14T07:06:32.475Z,10.90
2019-01-14T07:07:32.473Z,10.30
2019-01-14T07:08:32.467Z,11.10
2019-01-14T07:09:32.455Z,11.40
2019-01-14T07:10:32.432Z,10.20
2019-01-14T07:11:32.427Z,9.70
2019-01-14T07:12:32.423Z,9.20
2019-01-14T07:13:32.419Z,10.80
2019-01-14T07:14:32.392Z,8.30
2019-01-14T07:15:32.381Z,8.30
2019-01-14T07:16:32.369Z,9.40
2019-01-14T07:17:32.357Z,11.20
2019-01-14T07:18:32.347Z,11.50
2019-01-14T07:19:32.349Z,9.40
2019-01-14T07:20:32.337Z,8.70
2019-01-14T07:21:32.318Z,8.20
2019-01-14T07:22:32.307Z,10.20
2019-01-14T07:23:32.293Z,8.50
2019-01-14T07:24:32.291Z,8.70
2019-01-14T07:25:32.371Z,9.40
2019-01-14T07:26:32.266Z,7.00
2019-01-14T07:27:32.250Z,10.00
2019-01-14T07:28:32.241Z,7.20
2019-01-14T07:29:32.231Z,8.40
2019-01-14T07:30:32.235Z,9.90
2019-01-14T07:31:32.205Z,9.20
2019-01-14T07:32:32.201Z,8.50
2019-01-14T07:33:32.187Z,8.50
2019-01-14T07:34:32.188Z,9.10
2019-01-14T07:35:32.167Z,7.50
2019-01-14T07:36:32.162Z,8.80
2019-01-14T07:37:32.149Z,10.00
2019-01-14T07:38:32.157Z,8.90
2019-01-14T07:39:32.125Z,11.40
2019-01-14T07:40:32.116Z,7.00
2019-01-14T07:41:32.107Z,11.30
2019-01-14T07:42:32.137Z,9.50
2019-01-14T07:43:32.084Z,9.00
2019-01-14T07:44:32.073Z,7.50
2019-01-14T07:45:32.065Z,6.90
2019-01-14T07:46:32.046Z,9.00
2019-01-14T07:47:32.051Z,10.60
2019-01-14T07:48:32.025Z,7.90
2019-01-14T07:49:32.015Z,7.80
2019-01-14T07:50:32.012Z,7.80
2019-01-14T07:51:32.005Z,9.70
2019-01-14T07:52:31.983Z,8.70
2019-01-14T07:53:31.979Z,10.20
2019-01-14T07:54:31.960Z,11.20
2019-01-14T07:55:31.958Z,8.80
2019-01-14T07:56:31.941Z,10.80
2019-01-14T07:57:31.942Z,9.60
2019-01-14T07:58:31.921Z,8.00
2019-01-14T07:59:31.919Z,9.00
2019-01-14T08:00:31.899Z,7.20
2019-01-14T08:01:31.895Z,12.00
2019-01-14T08:02:31.880Z,10.40
2019-01-14T08:03:31.877Z,10.00
2019-01-14T08:04:31.863Z,8.50
2019-01-14T08:05:31.855Z,13.20
2019-01-14T08:06:31.833Z,8.70
2019-01-14T08:07:31.833Z,13.30
2019-01-14T08:08:31.819Z,12.00
2019-01-14T08:09:31.806Z,7.80
2019-01-14T08:10:31.793Z,10.40
2019-01-14T08:11:31.797Z,10.70
2019-01-14T08:12:31.780Z,8.80
2019-01-14T08:13:31.766Z,10.20
2019-01-14T08:14:31.773Z,11.20
2019-01-14T08:15:31.743Z,10.30
2019-01-14T08:16:31.739Z,8.90
2019-01-14T08:17:31.717Z,9.10
2019-01-14T08:18:31.710Z,9.80
2019-01-14T08:19:31.699Z,9.50
2019-01-14T08:20:31.707Z,13.30
2019-01-14T08:21:31.683Z,10.20
2019-01-14T08:22:31.673Z,9.80
2019-01-14T08:23:31.659Z,10.10
2019-01-14T08:24:31.651Z,8.60
2019-01-14T08:25:31.644Z,12.30
2019-01-14T08:26:31.629Z,10.40
2019-01-14T08:27:31.620Z,10.60
2019-01-14T08:28:31.609Z,10.20
2019-01-14T08:29:31.591Z,11.60
2019-01-14T08:30:31.582Z,11.90
2019-01-14T08:31:31.581Z,11.50
2019-01-14T08:32:31.561Z,10.30
2019-01-14T08:33:31.552Z,11.40
2019-01-14T08:34:31.537Z,10.20
2019-01-14T08:35:31.527Z,9.80
2019-01-14T08:36:31.524Z,11.40
2019-01-14T08:37:31.529Z,11.90
2019-01-14T08:38:31.495Z,10.30
2019-01-14T08:39:31.495Z,9.40
2019-01-14T08:40:31.477Z,10.10
2019-01-14T08:41:31.465Z,8.50
2019-01-14T08:42:31.459Z,13.10
2019-01-14T08:43:31.451Z,10.60
2019-01-14T08:44:31.433Z,10.70
2019-01-14T08:45:31.417Z,10.30
2019-01-14T08:46:31.413Z,10.30
2019-01-14T08:47:31.401Z,9.00
2019-01-14T08:48:31.391Z,11.00
2019-01-14T08:49:31.381Z,8.50
2019-01-14T08:50:31.374Z,10.80
2019-01-14T08:51:31.358Z,9.20
2019-01-14T08:52:31.346Z,10.70
2019-01-14T08:53:31.346Z,8.70
2019-01-14T08:54:31.335Z,10.20
2019-01-14T08:55:31.317Z,11.20
2019-01-14T08:56:31.312Z,8.10
2019-01-14T08:57:31.296Z,10.10
2019-01-14T08:58:31.289Z,8.60
2019-01-14T08:59:31.270Z,9.00
2019-01-14T09:00:31.263Z,9.10
2019-01-14T09:01:31.246Z,11.40
2019-01-14T09:02:31.235Z,8.40
2019-01-14T09:03:31.229Z,7.80
2019-01-14T09:04:32.458Z,8.50
2019-01-14T09:05:31.211Z,8.50
2019-01-14T09:06:31.207Z,7.40
2019-01-14T09:07:31.191Z,9.40
2019-01-14T09:08:31.174Z,10.70
2019-01-14T09:09:31.161Z,9.20
2019-01-14T09:10:31.151Z,10.10
2019-01-14T09:11:31.154Z,10.30
2019-01-14T09:12:31.130Z,11.60
2019-01-14T09:13:31.123Z,8.70
2019-01-14T09:14:31.112Z,8.80
2019-01-14T09:15:31.094Z,7.90
2019-01-14T09:16:31.085Z,8.90
2019-01-14T09:17:31.071Z,10.90
2019-01-14T09:18:31.062Z,8.40
2019-01-14T09:19:31.054Z,8.60
2019-01-14T09:20:31.041Z,9.50
2019-01-14T09:21:31.028Z,10.70
2019-01-14T09:22:31.024Z,7.80
2019-01-14T09:23:31.011Z,54.40
2019-01-14T09:24:31.019Z,41.00
2019-01-14T09:25:30.989Z,49.50
2019-01-14T09:26:30.979Z,12.00
2019-01-14T09:27:30.969Z,10.00
2019-01-14T09:28:30.956Z,7.10
2019-01-14T09:29:30.952Z,9.80
2019-01-14T09:30:30.953Z,9.10
2019-01-14T09:31:30.920Z,8.80
2019-01-14T09:32:30.907Z,9.20
2019-01-14T09:33:30.916Z,9.40
2019-01-14T09:34:30.893Z,9.80
2019-01-14T09:35:30.891Z,10.30
2019-01-14T09:36:30.869Z,7.50
2019-01-14T09:37:30.860Z,7.30
2019-01-14T09:38:35.821Z,10.00
2019-01-14T09:39:31.836Z,7.00
2019-01-14T09:40:30.819Z,7.90
2019-01-14T09:41:30.825Z,8.00
2019-01-14T09:42:30.809Z,8.90
2019-01-14T09:43:30.794Z,8.70
2019-01-14T09:44:30.783Z,8.70
2019-01-14T09:45:30.773Z,9.40
2019-01-14T09:46:30.765Z,7.60
2019-01-14T09:47:30.783Z,21.40
2019-01-14T09:48:30.743Z,10.30
2019-01-14T09:49:30.727Z,18.20
2019-01-14T09:50:30.723Z,19.30
2019-01-14T09:51:30.712Z,13.80
2019-01-14T09:52:30.700Z,12.90
2019-01-14T09:53:30.703Z,9.20
2019-01-14T09:54:30.675Z,9.60
2019-01-14T09:55:30.678Z,8.50
2019-01-14T09:56:30.659Z,8.00
2019-01-14T09:57:30.645Z,9.00
2019-01-14T09:58:30.637Z,7.80
2019-01-14T09:59:30.645Z,9.70
2019-01-14T10:00:30.614Z,9.10
2019-01-14T10:01:30.609Z,7.80
2019-01-14T10:02:30.592Z,7.40
2019-01-14T10:03:30.579Z,9.20
2019-01-14T10:04:30.577Z,7.70
2019-01-14T10:05:30.561Z,8.30
2019-01-14T10:06:30.547Z,8.50
2019-01-14T10:07:30.543Z,7.10
2019-01-14T10:08:30.531Z,7.20
2019-01-14T10:09:30.515Z,8.00
2019-01-14T10:10:30.525Z,7.20
2019-01-14T10:11:30.492Z,7.30
2019-01-14T10:12:30.477Z,7.80
2019-01-14T10:13:30.479Z,9.10
2019-01-14T10:14:30.472Z,9.10
2019-01-14T10:15:30.463Z,9.20
2019-01-14T10:16:30.445Z,7.50
2019-01-14T10:17:30.429Z,9.00
2019-01-14T10:18:30.430Z,8.20
2019-01-14T10:19:30.409Z,10.70
2019-01-14T10:20:30.393Z,7.90
2019-01-14T10:21:30.389Z,8.80
2019-01-14T10:22:30.379Z,7.30
2019-01-14T10:23:30.365Z,7.50
2019-01-14T10:24:30.351Z,9.10
2019-01-14T10:25:30.341Z,8.50
2019-01-14T10:26:30.338Z,9.80
2019-01-14T10:27:30.323Z,7.70
2019-01-14T10:28:30.321Z,9.20
2019-01-14T10:29:30.295Z,7.50
2019-01-14T10:30:30.289Z,8.00
2019-01-14T10:31:30.277Z,10.60
2019-01-14T10:32:30.267Z,8.60
2019-01-14T10:33:30.253Z,8.30
2019-01-14T10:34:30.255Z,8.20
2019-01-14T10:35:30.233Z,6.90
2019-01-14T10:36:30.221Z,8.40
2019-01-14T10:37:30.205Z,8.50
2019-01-14T10:38:30.201Z,9.30
2019-01-14T10:39:30.193Z,8.00
2019-01-14T10:40:30.199Z,9.10
2019-01-14T10:41:30.179Z,7.80
2019-01-14T10:42:30.153Z,9.60
2019-01-14T10:43:30.151Z,8.50
2019-01-14T10:44:30.139Z,8.10
2019-01-14T10:45:30.125Z,9.00
2019-01-14T10:46:30.115Z,9.00
2019-01-14T10:47:30.114Z,7.80
2019-01-14T10:48:30.093Z,8.00
2019-01-14T10:49:30.103Z,6.80
2019-01-14T10:50:30.071Z,7.90
2019-01-14T10:51:30.066Z,7.50
2019-01-14T10:52:30.050Z,7.90
2019-01-14T10:53:30.039Z,6.50
2019-01-14T10:54:30.031Z,6.10
2019-01-14T10:55:30.027Z,7.10
2019-01-14T10:56:30.009Z,6.40
2019-01-14T10:57:30.001Z,6.10
2019-01-14T10:58:29.989Z,8.80
2019-01-14T10:59:29.969Z,7.20
2019-01-14T11:00:29.962Z,6.20
2019-01-14T11:01:29.953Z,7.70
2019-01-14T11:02:29.945Z,6.80
2019-01-14T11:03:29.943Z,6.10
2019-01-14T11:04:29.924Z,7.60
2019-01-14T11:05:29.909Z,7.10
2019-01-14T11:06:29.905Z,7.60
2019-01-14T11:07:29.889Z,7.50
2019-01-14T11:08:29.877Z,5.80
2019-01-14T11:09:29.866Z,5.90
2019-01-14T11:10:29.852Z,7.70
2019-01-14T11:11:29.843Z,7.50
2019-01-14T11:12:29.849Z,5.00
2019-01-14T11:13:29.825Z,5.90
2019-01-14T11:14:29.819Z,7.60
2019-01-14T11:15:29.818Z,6.20
2019-01-14T11:16:29.791Z,7.30
2019-01-14T11:17:29.787Z,5.70
2019-01-14T11:18:29.774Z,6.00
2019-01-14T11:19:29.759Z,9.70
2019-01-14T11:20:29.757Z,7.10
2019-01-14T11:21:29.750Z,5.60
2019-01-14T11:22:29.724Z,6.10
2019-01-14T11:23:29.727Z,6.10
2019-01-14T11:24:29.705Z,7.30
2019-01-14T11:25:29.691Z,6.20
2019-01-14T11:26:29.699Z,5.90
2019-01-14T11:27:29.699Z,5.30
2019-01-14T11:28:29.660Z,5.00
2019-01-14T11:29:29.651Z,4.50
2019-01-14T11:30:29.647Z,7.00
2019-01-14T11:31:29.626Z,6.50
2019-01-14T11:32:29.630Z,7.30
2019-01-14T11:33:29.607Z,4.60
2019-01-14T11:34:29.608Z,6.20
2019-01-14T11:35:29.587Z,5.70
2019-01-14T11:36:29.575Z,4.70
2019-01-14T11:37:29.568Z,5.80
2019-01-14T11:38:29.560Z,4.50
2019-01-14T11:39:29.543Z,4.70
2019-01-14T11:40:29.539Z,5.00
2019-01-14T11:41:29.516Z,5.00
2019-01-14T11:42:29.511Z,6.00
2019-01-14T11:43:29.506Z,5.20
2019-01-14T11:44:29.534Z,4.00
2019-01-14T11:45:29.475Z,4.90
2019-01-14T11:46:29.467Z,5.00
2019-01-14T11:47:29.459Z,5.20
2019-01-14T11:48:29.443Z,4.50
2019-01-14T11:49:29.458Z,5.30
2019-01-14T11:50:29.428Z,5.10
2019-01-14T11:51:29.421Z,5.00
2019-01-14T11:52:29.402Z,5.30
2019-01-14T11:53:29.393Z,4.00
2019-01-14T11:54:29.381Z,5.20
2019-01-14T11:55:29.376Z,3.90
2019-01-14T11:56:29.369Z,5.10
2019-01-14T11:57:29.357Z,4.50
2019-01-14T11:58:29.337Z,4.40
2019-01-14T11:59:29.332Z,3.50
2019-01-14T12:00:36.233Z,6.50
2019-01-14T12:01:30.312Z,5.00
2019-01-14T12:02:29.306Z,4.00
2019-01-14T12:03:29.299Z,5.10
2019-01-14T12:04:29.280Z,7.30
2019-01-14T12:05:29.266Z,3.70
2019-01-14T12:06:29.253Z,4.00
2019-01-14T12:07:29.255Z,5.00
2019-01-14T12:08:29.247Z,5.80
2019-01-14T12:09:29.223Z,5.90
2019-01-14T12:10:29.214Z,4.60
2019-01-14T12:11:29.204Z,4.20
2019-01-14T12:12:29.186Z,4.80
2019-01-14T12:13:29.187Z,4.90
2019-01-14T12:14:29.172Z,5.30
2019-01-14T12:15:29.159Z,6.10
2019-01-14T12:16:29.156Z,6.50
2019-01-14T12:17:29.140Z,4.10
2019-01-14T12:18:29.139Z,4.80
2019-01-14T12:19:29.128Z,4.90
2019-01-14T12:20:29.123Z,4.20
2019-01-14T12:21:29.095Z,5.40
2019-01-14T12:22:29.085Z,6.70
2019-01-14T12:23:29.075Z,3.50
2019-01-14T12:24:29.061Z,5.60
2019-01-14T12:25:29.055Z,4.70
2019-01-14T12:26:29.041Z,5.40
2019-01-14T12:27:29.031Z,3.20
2019-01-14T12:28:29.022Z,5.70
2019-01-14T12:29:29.008Z,5.20
2019-01-14T12:30:29.007Z,4.20
2019-01-14T12:31:28.998Z,4.00
2019-01-14T12:32:29.003Z,4.20
2019-01-14T12:33:28.971Z,2.80
2019-01-14T12:34:28.955Z,3.60
2019-01-14T12:35:28.951Z,4.20
2019-01-14T12:36:28.939Z,3.80
2019-01-14T12:37:28.933Z,5.00
2019-01-14T12:38:28.920Z,4.70
2019-01-14T12:39:28.899Z,3.90
2019-01-14T12:40:28.896Z,5.10
2019-01-14T12:41:28.881Z,5.90
2019-01-14T12:42:28.872Z,3.80
2019-01-14T12:43:28.872Z,3.70
2019-01-14T12:44:28.855Z,6.00
2019-01-14T12:45:28.844Z,4.00
2019-01-14T12:46:28.832Z,4.60
2019-01-14T12:47:28.812Z,4.60
2019-01-14T12:48:28.811Z,3.90
2019-01-14T12:49:28.813Z,5.10
2019-01-14T12:50:28.797Z,5.00
2019-01-14T12:51:28.777Z,3.50
2019-01-14T12:52:28.770Z,5.50
2019-01-14T12:53:28.756Z,5.70
2019-01-14T12:54:28.755Z,4.30
2019-01-14T12:55:28.752Z,3.60
2019-01-14T12:56:28.729Z,5.80
2019-01-14T12:57:28.710Z,3.60
2019-01-14T12:58:28.717Z,4.90
2019-01-14T12:59:28.694Z,3.80
2019-01-14T13:00:28.689Z,4.50
2019-01-14T13:01:28.671Z,4.10
2019-01-14T13:02:28.663Z,4.40